createdAt,value
2019-04-25T00:02:22.339Z,14.02
2019-04-25T00:04:53.485Z,13.97
2019-04-25T00:07:24.314Z,14.00
2019-04-25T00:09:55.566Z,13.95
2019-04-25T00:12:26.429Z,13.86
2019-04-25T00:15:01.267Z,13.83
2019-04-25T00:17:33.241Z,13.84
2019-04-25T00:20:04.855Z,13.78
2019-04-25T00:22:37.389Z,13.70
2019-04-25T00:25:15.965Z,13.68
2019-04-25T00:27:43.568Z,13.69
2019-04-25T00:30:14.820Z,13.58
2019-04-25T00:32:45.525Z,13.56
2019-04-25T00:35:16.472Z,13.47
2019-04-25T00:37:47.824Z,13.55
2019-04-25T00:40:18.803Z,13.47
2019-04-25T00:42:50.675Z,13.49
2019-04-25T00:45:22.292Z,13.40
2019-04-25T00:47:53.462Z,13.47
2019-04-25T00:50:24.431Z,13.41
2019-04-25T00:52:55.084Z,13.38
2019-04-25T00:55:28.804Z,13.33
2019-04-25T00:58:01.380Z,13.25
2019-04-25T01:00:35.161Z,13.23
2019-04-25T01:03:11.238Z,13.23
2019-04-25T01:05:44.300Z,13.18
2019-04-25T01:08:14.881Z,13.10
2019-04-25T01:10:46.221Z,13.12
2019-04-25T01:13:17.451Z,13.04
2019-04-25T01:15:48.502Z,13.08
2019-04-25T01:18:19.487Z,13.08
2019-04-25T01:20:51.165Z,13.10
2019-04-25T01:23:23.656Z,13.05
2019-04-25T01:25:54.687Z,13.08
2019-04-25T01:28:25.713Z,13.09
2019-04-25T01:30:56.452Z,13.05
2019-04-25T01:33:28.124Z,13.01
2019-04-25T01:36:03.624Z,13.02
2019-04-25T01:38:53.627Z,12.93
2019-04-25T01:41:25.596Z,12.98
2019-04-25T01:44:00.645Z,12.87
2019-04-25T01:46:31.585Z,12.95
2019-04-25T01:49:04.234Z,12.92
2019-04-25T01:51:35.088Z,12.88
2019-04-25T01:54:05.979Z,12.83
2019-04-25T01:56:36.550Z,12.79
2019-04-25T01:59:07.294Z,12.73
2019-04-25T02:01:39.721Z,12.82
2019-04-25T02:04:11.096Z,12.73
2019-04-25T02:06:43.057Z,12.72
2019-04-25T02:09:14.722Z,12.71
2019-04-25T02:11:54.730Z,12.73
2019-04-25T02:14:26.538Z,12.65
2019-04-25T02:16:59.041Z,12.61
2019-04-25T02:19:29.872Z,12.61
2019-04-25T02:22:02.470Z,12.59
2019-04-25T02:24:34.013Z,12.62
2019-04-25T02:27:04.862Z,12.61
2019-04-25T02:29:35.583Z,12.64
2019-04-25T02:32:09.052Z,12.65
2019-04-25T02:34:39.113Z,12.65
2019-04-25T02:37:09.889Z,12.61
2019-04-25T02:39:40.552Z,12.51
2019-04-25T02:42:11.375Z,12.54
2019-04-25T02:44:44.510Z,12.59
2019-04-25T02:47:34.465Z,12.53
2019-04-25T02:50:15.129Z,12.55
2019-04-25T02:52:47.848Z,12.56
2019-04-25T02:55:30.999Z,12.54
2019-04-25T02:57:50.893Z,12.43
2019-04-25T03:00:45.341Z,12.30
2019-04-25T03:03:01.257Z,12.19
2019-04-25T03:05:32.034Z,12.07
2019-04-25T03:08:07.953Z,11.98
2019-04-25T03:13:15.312Z,11.74
2019-04-25T03:15:46.977Z,11.68
2019-04-25T03:18:19.285Z,11.71
2019-04-25T03:20:54.931Z,11.63
2019-04-25T03:23:30.341Z,11.51
2019-04-25T03:26:04.711Z,11.67
2019-04-25T03:28:35.746Z,11.67
2019-04-25T03:31:12.763Z,11.74
2019-04-25T03:33:38.908Z,11.61
2019-04-25T03:36:09.650Z,11.64
2019-04-25T03:38:40.628Z,11.65
2019-04-25T03:41:11.448Z,11.57
2019-04-25T03:43:44.133Z,11.53
2019-04-25T03:46:14.832Z,11.48
2019-04-25T03:48:45.572Z,11.30
2019-04-25T03:51:16.363Z,11.19
2019-04-25T03:53:46.992Z,11.07
2019-04-25T03:56:17.701Z,11.03
2019-04-25T03:58:50.734Z,10.95
2019-04-25T04:01:24.520Z,11.00
2019-04-25T04:03:55.928Z,11.09
2019-04-25T04:06:26.829Z,11.19
2019-04-25T04:08:57.542Z,11.15
2019-04-25T04:11:28.427Z,11.20
2019-04-25T04:13:59.006Z,11.38
2019-04-25T04:16:44.304Z,11.54
2019-04-25T04:19:24.042Z,11.64
2019-04-25T04:21:56.529Z,11.85
2019-04-25T04:24:29.831Z,11.92
2019-04-25T04:27:09.116Z,12.10
2019-04-25T04:29:39.550Z,12.18
2019-04-25T04:32:10.568Z,12.30
2019-04-25T04:34:41.388Z,12.53
2019-04-25T04:37:13.944Z,12.64
2019-04-25T04:39:44.537Z,12.78
2019-04-25T04:42:16.073Z,12.85
2019-04-25T04:44:46.877Z,12.90
2019-04-25T04:47:17.462Z,12.97
2019-04-25T04:49:48.211Z,13.01
2019-04-25T04:52:19.097Z,13.05
2019-04-25T04:54:57.686Z,13.07
2019-04-25T04:57:32.267Z,13.23
2019-04-25T04:59:54.975Z,13.27
2019-04-25T05:02:33.710Z,13.35
2019-04-25T05:05:06.806Z,13.44
2019-04-25T05:07:53.860Z,13.49
2019-04-25T05:10:24.990Z,13.68
2019-04-25T05:12:55.936Z,13.77
2019-04-25T05:15:26.845Z,13.82
2019-04-25T05:17:58.302Z,13.86
2019-04-25T05:20:28.944Z,14.05
2019-04-25T05:22:59.546Z,14.14
2019-04-25T05:25:30.772Z,14.27
2019-04-25T05:28:05.116Z,14.29
2019-04-25T05:30:40.745Z,14.34
2019-04-25T05:33:11.608Z,14.34
2019-04-25T05:35:43.773Z,14.45
2019-04-25T05:38:16.338Z,14.52
2019-04-25T05:40:50.430Z,14.67
2019-04-25T05:43:21.476Z,14.72
2019-04-25T05:45:52.040Z,14.81
2019-04-25T05:48:25.068Z,14.97
2019-04-25T05:50:55.243Z,15.03
2019-04-25T05:53:26.356Z,15.10
2019-04-25T05:55:57.733Z,15.21
2019-04-25T05:58:28.605Z,15.24
2019-04-25T06:01:00.522Z,15.29
2019-04-25T06:03:31.688Z,15.46
2019-04-25T06:06:03.483Z,15.58
2019-04-25T06:08:37.820Z,15.71
2019-04-25T06:11:18.084Z,15.85
2019-04-25T06:13:53.784Z,15.99
2019-04-25T06:16:28.281Z,16.18
2019-04-25T06:19:14.203Z,16.15
2019-04-25T06:21:43.511Z,16.20
2019-04-25T06:24:20.472Z,16.41
2019-04-25T06:26:53.911Z,16.57
2019-04-25T06:29:24.856Z,16.60
2019-04-25T06:32:05.714Z,16.66
2019-04-25T06:34:31.693Z,16.77
2019-04-25T06:37:04.255Z,16.88
2019-04-25T06:39:34.141Z,16.87
2019-04-25T06:42:06.064Z,16.74
2019-04-25T06:44:43.224Z,16.85
2019-04-25T06:47:29.572Z,16.97
2019-04-25T06:50:00.314Z,17.30
2019-04-25T06:52:32.053Z,17.58
2019-04-25T06:55:16.927Z,17.71
2019-04-25T06:57:54.416Z,18.16
2019-04-25T07:00:29.488Z,19.04
2019-04-25T07:03:01.234Z,22.22
2019-04-25T07:05:40.287Z,22.64
2019-04-25T07:08:07.679Z,23.25
2019-04-25T07:10:39.289Z,24.28
2019-04-25T07:13:10.230Z,25.15
2019-04-25T07:15:41.399Z,26.15
2019-04-25T07:18:14.097Z,27.16
2019-04-25T07:20:45.445Z,27.33
2019-04-25T07:23:17.082Z,27.66
2019-04-25T07:25:50.549Z,29.08
2019-04-25T07:28:36.087Z,30.08
2019-04-25T07:31:13.324Z,29.06
2019-04-25T07:33:49.716Z,29.24
2019-04-25T07:36:23.248Z,28.93
2019-04-25T07:39:05.775Z,29.44
2019-04-25T07:41:36.749Z,30.34
2019-04-25T07:44:07.384Z,31.06
2019-04-25T07:46:39.957Z,31.27
2019-04-25T07:49:13.365Z,31.57
2019-04-25T07:51:46.973Z,31.28
2019-04-25T07:54:18.008Z,30.69
2019-04-25T07:56:51.642Z,31.01
2019-04-25T07:59:25.533Z,31.68
2019-04-25T08:01:59.653Z,32.40
2019-04-25T08:04:31.774Z,32.99
2019-04-25T08:07:04.949Z,32.57
2019-04-25T08:09:37.978Z,32.75
2019-04-25T08:12:09.323Z,31.91
2019-04-25T08:14:41.742Z,30.67
2019-04-25T08:17:16.295Z,31.42
2019-04-25T08:20:01.939Z,32.09
2019-04-25T08:22:42.912Z,31.31
2019-04-25T08:25:11.093Z,29.48
2019-04-25T08:27:41.862Z,30.84
2019-04-25T08:30:16.019Z,31.10
2019-04-25T08:32:49.472Z,31.76
2019-04-25T08:35:21.479Z,32.20
2019-04-25T08:37:54.275Z,32.45
2019-04-25T08:40:32.471Z,32.80
2019-04-25T08:43:06.548Z,31.82
2019-04-25T08:45:39.961Z,31.89
2019-04-25T08:48:13.621Z,31.55
2019-04-25T08:51:03.674Z,32.01
2019-04-25T08:53:38.697Z,31.23
2019-04-25T08:56:15.313Z,33.00
2019-04-25T08:59:03.332Z,33.00
2019-04-25T09:01:34.901Z,31.97
2019-04-25T09:04:10.733Z,31.48
2019-04-25T09:06:44.342Z,32.69
2019-04-25T09:09:16.672Z,32.96
2019-04-25T09:11:49.192Z,33.48
2019-04-25T09:14:22.053Z,32.83
2019-04-25T09:16:55.124Z,31.68
2019-04-25T09:19:28.063Z,31.91
2019-04-25T09:22:03.218Z,31.76
2019-04-25T09:24:37.729Z,31.73
2019-04-25T09:27:09.800Z,31.66
2019-04-25T09:29:41.125Z,31.56
2019-04-25T09:32:16.230Z,30.98
2019-04-25T09:34:52.616Z,31.29
2019-04-25T09:37:29.656Z,32.04
2019-04-25T09:40:10.264Z,31.04
2019-04-25T09:42:44.739Z,31.74
2019-04-25T09:45:30.901Z,33.19
2019-04-25T09:48:10.088Z,31.51
2019-04-25T09:51:01.102Z,28.31
2019-04-25T09:53:34.291Z,28.11
2019-04-25T09:56:10.155Z,30.94
2019-04-25T09:58:53.841Z,32.09
2019-04-25T10:01:28.061Z,32.07
2019-04-25T10:04:03.073Z,32.12
2019-04-25T10:06:38.912Z,32.59
2019-04-25T10:09:15.618Z,34.03
2019-04-25T10:11:46.714Z,34.24
2019-04-25T10:14:37.693Z,34.76
2019-04-25T10:17:10.470Z,33.97
2019-04-25T10:19:45.597Z,33.83
2019-04-25T10:22:20.979Z,34.02
2019-04-25T10:25:00.414Z,34.56
2019-04-25T10:27:26.233Z,34.56
2019-04-25T10:29:57.469Z,34.57
2019-04-25T10:32:28.417Z,33.89
2019-04-25T10:34:59.908Z,34.18
2019-04-25T10:37:30.802Z,34.01
2019-04-25T10:40:01.696Z,34.25
2019-04-25T10:42:34.274Z,34.17
2019-04-25T10:45:20.211Z,33.23
2019-04-25T10:47:40.222Z,33.29
2019-04-25T10:50:11.453Z,31.96
2019-04-25T10:52:46.146Z,31.93
2019-04-25T10:55:18.248Z,33.60
2019-04-25T10:57:49.445Z,33.94
2019-04-25T11:00:25.817Z,34.66
2019-04-25T11:02:59.536Z,34.35
2019-04-25T11:05:30.654Z,33.78
2019-04-25T11:08:02.012Z,32.97
2019-04-25T11:10:34.372Z,33.54
2019-04-25T11:13:07.117Z,33.22
2019-04-25T11:15:42.880Z,33.02
2019-04-25T11:18:15.303Z,33.95
2019-04-25T11:20:48.828Z,33.27
2019-04-25T11:23:19.792Z,33.63
2019-04-25T11:25:54.155Z,34.06
2019-04-25T11:28:26.829Z,33.25
2019-04-25T11:30:58.929Z,33.09
2019-04-25T11:33:33.643Z,32.85
2019-04-25T11:36:05.641Z,31.90
2019-04-25T11:38:54.556Z,32.21
2019-04-25T11:41:34.186Z,32.77
2019-04-25T11:59:26.161Z,32.29
2019-04-25T12:01:58.600Z,31.59
2019-04-25T12:04:29.387Z,32.28
2019-04-25T12:07:00.584Z,32.24
2019-04-25T12:09:33.759Z,32.72
2019-04-25T12:12:07.617Z,32.92
2019-04-25T12:14:38.920Z,33.26
2019-04-25T12:17:12.752Z,33.14
2019-04-25T12:19:46.948Z,31.96
2019-04-25T12:22:21.381Z,31.96
2019-04-25T12:24:54.726Z,32.53
2019-04-25T12:27:26.508Z,32.11
2019-04-25T12:30:00.514Z,31.70
2019-04-25T12:32:35.310Z,32.27
2019-04-25T12:35:10.435Z,31.43
2019-04-25T12:37:41.165Z,31.25
2019-04-25T12:40:14.098Z,31.39
2019-04-25T12:42:46.286Z,31.86
2019-04-25T12:45:24.165Z,32.30
2019-04-25T12:47:59.373Z,32.19
2019-04-25T14:46:50.604Z,32.07
2019-04-25T14:49:30.550Z,31.67
2019-04-25T14:52:06.703Z,32.29
2019-04-25T14:54:42.057Z,32.14
2019-04-25T14:57:17.154Z,31.92
2019-04-25T14:59:48.041Z,31.09
2019-04-25T15:02:19.665Z,30.91
2019-04-25T15:04:50.555Z,30.74
2019-04-25T15:07:23.251Z,30.98
2019-04-25T15:09:54.323Z,30.89
2019-04-25T15:12:25.030Z,30.34
2019-04-25T15:14:56.153Z,30.51
2019-04-25T15:17:28.439Z,30.68
2019-04-25T15:19:59.495Z,30.81
2019-04-25T15:22:30.550Z,30.45
2019-04-25T15:25:01.248Z,30.11
2019-04-25T15:27:33.084Z,28.57
2019-04-25T15:30:06.483Z,29.42
2019-04-25T15:32:38.489Z,30.20
2019-04-25T15:35:11.584Z,30.92
2019-04-25T15:37:49.580Z,31.39
2019-04-25T15:40:31.979Z,31.29
2019-04-25T15:43:17.201Z,29.19
2019-04-25T15:45:58.770Z,29.44
2019-04-25T15:48:29.800Z,30.83
2019-04-25T15:51:00.803Z,29.96
2019-04-25T15:53:32.487Z,29.28
2019-04-25T15:56:03.077Z,30.10
2019-04-25T15:58:35.264Z,30.85
2019-04-25T16:01:07.112Z,31.45
2019-04-25T16:03:38.724Z,31.79
2019-04-25T16:06:10.514Z,31.70
2019-04-25T16:08:41.304Z,31.83
2019-04-25T16:11:12.813Z,32.06
2019-04-25T16:13:43.524Z,31.98
2019-04-25T16:16:17.246Z,32.03
2019-04-25T16:18:49.317Z,32.16
2019-04-25T16:21:21.112Z,32.12
2019-04-25T16:23:51.920Z,30.77
2019-04-25T16:26:23.026Z,30.85
2019-04-25T16:28:54.247Z,31.37
2019-04-25T16:31:26.704Z,31.64
2019-04-25T16:33:58.346Z,31.74
2019-04-25T16:36:29.702Z,31.97
2019-04-25T16:39:02.490Z,31.91
2019-04-25T16:41:34.745Z,31.94
2019-04-25T16:44:08.053Z,31.88
2019-04-25T16:46:39.780Z,31.57
2019-04-25T16:49:10.927Z,31.20
2019-04-25T16:51:42.378Z,30.96
2019-04-25T16:54:13.437Z,30.50
2019-04-25T16:56:44.744Z,29.66
2019-04-25T16:59:17.225Z,29.32
2019-04-25T17:01:48.563Z,29.36
2019-04-25T17:04:20.037Z,29.35
2019-04-25T17:06:51.094Z,29.42
2019-04-25T17:09:22.251Z,29.42
2019-04-25T17:11:53.168Z,29.35
2019-04-25T17:14:28.080Z,29.36
2019-04-25T17:17:12.489Z,29.28
2019-04-25T17:19:49.423Z,29.22
2019-04-25T17:22:22.280Z,29.14
2019-04-25T17:24:53.469Z,29.00
2019-04-25T17:27:24.322Z,28.87
2019-04-25T17:29:55.069Z,28.59
2019-04-25T17:32:46.764Z,28.45
2019-04-25T17:35:14.928Z,28.16
2019-04-25T17:37:53.513Z,27.82
2019-04-25T17:40:26.147Z,27.25
2019-04-25T17:43:10.509Z,26.35
2019-04-25T17:45:34.733Z,25.85
2019-04-25T17:48:05.812Z,24.96
2019-04-25T17:50:37.505Z,24.40
2019-04-25T17:56:37.022Z,23.77
2019-04-25T17:59:09.520Z,23.67
2019-04-25T18:01:40.243Z,23.35
2019-04-25T18:04:11.715Z,23.44
2019-04-25T18:06:43.038Z,23.35
2019-04-25T18:09:15.041Z,22.74
2019-04-25T18:11:46.423Z,21.85
2019-04-25T18:14:19.032Z,21.30
2019-04-25T18:16:50.150Z,20.88
2019-04-25T18:19:38.859Z,20.66
2019-04-25T18:22:11.251Z,20.75
2019-04-25T18:24:46.769Z,20.64
2019-04-25T18:27:28.370Z,20.38
2019-04-25T18:29:59.224Z,20.27
2019-04-25T18:32:32.293Z,20.09
2019-04-25T18:35:05.051Z,19.99
2019-04-25T18:37:43.424Z,19.93
2019-04-25T18:40:16.679Z,19.90
2019-04-25T18:42:55.612Z,19.77
2019-04-25T18:45:29.342Z,19.71
2019-04-25T18:48:00.548Z,19.44
2019-04-25T18:50:33.022Z,19.28
2019-04-25T18:53:11.274Z,18.94
2019-04-25T18:55:46.406Z,18.78
2019-04-25T18:58:41.889Z,18.75
2019-04-25T19:01:27.641Z,18.64
2019-04-25T19:04:10.272Z,18.49
2019-04-25T19:06:53.206Z,18.28
2019-04-25T19:09:14.164Z,17.96
2019-04-25T19:11:45.298Z,17.73
2019-04-25T19:14:16.638Z,17.38
2019-04-25T19:16:47.650Z,17.21
2019-04-25T19:19:20.003Z,17.09
2019-04-25T19:21:50.742Z,17.12
2019-04-25T19:24:22.039Z,17.15
2019-04-25T19:26:52.967Z,17.12
2019-04-25T19:29:26.239Z,17.26
2019-04-25T19:31:57.043Z,17.24
2019-04-25T19:34:27.869Z,17.16
2019-04-25T19:36:59.848Z,17.15
2019-04-25T19:39:32.755Z,16.88
2019-04-25T19:42:21.446Z,16.83
2019-04-25T19:44:52.506Z,16.72
2019-04-25T19:47:24.732Z,16.60
2019-04-25T19:49:55.527Z,16.63
2019-04-25T19:52:29.507Z,16.61
2019-04-25T19:55:00.395Z,16.59
2019-04-25T19:57:31.359Z,16.50
2019-04-25T20:00:03.537Z,16.43
2019-04-25T20:02:37.817Z,16.30
2019-04-25T20:05:13.968Z,16.39
2019-04-25T20:07:48.202Z,16.38
2019-04-25T20:10:39.800Z,16.30
2019-04-25T20:13:10.880Z,16.09
2019-04-25T20:15:44.052Z,16.09
2019-04-25T20:18:14.613Z,16.08
2019-04-25T20:20:46.018Z,16.05
2019-04-25T20:23:17.478Z,15.98
2019-04-25T20:25:48.458Z,15.87
2019-04-25T20:28:20.702Z,15.68
2019-04-25T20:30:52.154Z,15.58
2019-04-25T20:33:22.967Z,15.46
2019-04-25T20:35:53.947Z,15.34
2019-04-25T20:38:25.903Z,15.31
2019-04-25T20:40:56.884Z,15.03
2019-04-25T20:43:28.433Z,14.89
2019-04-25T20:45:59.805Z,14.89
2019-04-25T20:48:30.880Z,14.96
2019-04-25T20:51:02.176Z,15.00
2019-04-25T20:53:34.217Z,15.22
2019-04-25T20:56:05.968Z,15.22
2019-04-25T20:58:37.771Z,15.19
2019-04-25T21:01:08.651Z,15.07
2019-04-25T21:03:40.490Z,14.96
2019-04-25T21:06:17.477Z,14.95
2019-04-25T21:08:49.034Z,15.04
2019-04-25T21:11:20.878Z,14.96
2019-04-25T21:14:02.644Z,14.85
2019-04-25T21:16:56.421Z,14.79
2019-04-25T21:19:28.989Z,14.77
2019-04-25T21:22:01.093Z,14.58
2019-04-25T21:24:32.063Z,14.48
2019-04-25T21:27:03.437Z,14.45
2019-04-25T21:29:34.208Z,14.39
2019-04-25T21:32:05.573Z,14.37
2019-04-25T21:34:36.347Z,14.36
2019-04-25T21:37:09.002Z,14.35
2019-04-25T21:39:48.719Z,14.33
2019-04-25T21:42:27.820Z,14.30
2019-04-25T21:44:58.958Z,14.21
2019-04-25T21:47:30.043Z,14.32
2019-04-25T21:50:01.310Z,14.14
2019-04-25T21:52:34.495Z,13.99
2019-04-25T21:55:07.661Z,13.90
2019-04-25T21:57:39.237Z,13.86
2019-04-25T22:00:13.817Z,13.81
2019-04-25T22:02:46.760Z,13.84
2019-04-25T22:05:17.846Z,14.02
2019-04-25T22:07:49.478Z,14.13
2019-04-25T22:10:22.146Z,14.13
2019-04-25T22:12:53.284Z,14.20
2019-04-25T22:15:25.073Z,14.20
2019-04-25T22:17:58.114Z,14.21
2019-04-25T22:20:29.256Z,14.16
2019-04-25T22:23:00.329Z,14.05
2019-04-25T22:25:31.392Z,13.91
2019-04-25T22:28:03.071Z,13.85
2019-04-25T22:30:34.484Z,13.83
2019-04-25T22:33:19.275Z,13.76
2019-04-25T22:35:55.398Z,13.73
2019-04-25T22:38:26.456Z,13.54
2019-04-25T22:40:59.178Z,13.43
2019-04-25T22:43:32.829Z,13.41
2019-04-25T22:46:05.992Z,13.42
2019-04-25T22:48:50.718Z,13.48
2019-04-25T22:51:21.469Z,13.67
2019-04-25T22:53:52.846Z,14.10
2019-04-25T22:56:23.585Z,14.09
2019-04-25T22:58:54.387Z,14.03
2019-04-25T23:01:33.009Z,13.94
2019-04-25T23:04:11.798Z,13.89
2019-04-25T23:06:43.528Z,13.79
2019-04-25T23:09:14.732Z,13.66
2019-04-25T23:11:46.040Z,13.59
2019-04-25T23:14:17.025Z,13.57
2019-04-25T23:16:47.846Z,13.68
2019-04-25T23:19:18.715Z,13.74
2019-04-25T23:21:49.712Z,13.75
2019-04-25T23:24:22.038Z,13.67
2019-04-25T23:27:05.256Z,13.58
2019-04-25T23:29:36.486Z,13.64
2019-04-25T23:32:08.711Z,13.80
2019-04-25T23:34:39.979Z,13.85
2019-04-25T23:37:10.930Z,13.93
2019-04-25T23:39:42.723Z,13.99
2019-04-25T23:42:15.579Z,13.96
2019-04-25T23:44:46.873Z,13.78
2019-04-25T23:47:17.667Z,13.67
2019-04-25T23:52:38.265Z,13.65
2019-04-25T23:55:09.535Z,13.73
2019-04-25T23:57:41.281Z,13.68
